sensor_id;sensor_type;location;lat;lon;timestamp;P1;durP1;ratioP1;P2;durP2;ratioP2
5137;SDS011;53959;53.626;11.410;2023-06-22T00:01:46;3.87;;;3.30;;
5137;SDS011;53959;53.626;11.410;2023-06-22T00:04:11;5.03;;;3.53;;
5137;SDS011;53959;53.626;11.410;2023-06-22T00:06:37;3.80;;;3.50;;
5137;SDS011;53959;53.626;11.410;2023-06-22T00:09:02;4.70;;;3.33;;
5137;SDS011;53959;53.626;11.410;2023-06-22T00:11:28;2.87;;;2.67;;
5137;SDS011;53959;53.626;11.410;2023-06-22T00:13:54;4.17;;;3.33;;
5137;SDS011;53959;53.626;11.410;2023-06-22T00:16:19;4.30;;;3.10;;
5137;SDS011;53959;53.626;11.410;2023-06-22T00:18:44;3.67;;;3.37;;
5137;SDS011;53959;53.626;11.410;2023-06-22T00:21:12;3.80;;;3.20;;
5137;SDS011;53959;53.626;11.410;2023-06-22T00:23:38;4.90;;;3.60;;
5137;SDS011;53959;53.626;11.410;2023-06-22T00:26:03;4.00;;;3.60;;
5137;SDS011;53959;53.626;11.410;2023-06-22T00:28:29;6.10;;;3.73;;
5137;SDS011;53959;53.626;11.410;2023-06-22T00:30:54;5.67;;;3.97;;
5137;SDS011;53959;53.626;11.410;2023-06-22T00:33:19;4.13;;;3.70;;
5137;SDS011;53959;53.626;11.410;2023-06-22T00:35:45;9.83;;;4.00;;
5137;SDS011;53959;53.626;11.410;2023-06-22T00:38:10;4.30;;;4.00;;
5137;SDS011;53959;53.626;11.410;2023-06-22T00:40:36;4.20;;;3.83;;
5137;SDS011;53959;53.626;11.410;2023-06-22T00:43:02;7.70;;;4.30;;
5137;SDS011;53959;53.626;11.410;2023-06-22T00:45:28;8.10;;;4.77;;
5137;SDS011;53959;53.626;11.410;2023-06-22T00:47:56;4.20;;;3.90;;
5137;SDS011;53959;53.626;11.410;2023-06-22T00:50:24;7.77;;;4.10;;
5137;SDS011;53959;53.626;11.410;2023-06-22T00:52:53;5.97;;;4.17;;
5137;SDS011;53959;53.626;11.410;2023-06-22T00:55:21;5.50;;;4.63;;
5137;SDS011;53959;53.626;11.410;2023-06-22T00:57:47;7.20;;;4.80;;
5137;SDS011;53959;53.626;11.410;2023-06-22T01:00:14;5.23;;;4.27;;
5137;SDS011;53959;53.626;11.410;2023-06-22T01:02:42;5.70;;;5.10;;
5137;SDS011;53959;53.626;11.410;2023-06-22T01:05:11;6.53;;;4.50;;
5137;SDS011;53959;53.626;11.410;2023-06-22T01:07:42;4.87;;;4.43;;
5137;SDS011;53959;53.626;11.410;2023-06-22T01:12:57;5.17;;;4.67;;
5137;SDS011;53959;53.626;11.410;2023-06-22T01:18:10;4.80;;;4.33;;
5137;SDS011;53959;53.626;11.410;2023-06-22T01:20:38;8.23;;;4.60;;
5137;SDS011;53959;53.626;11.410;2023-06-22T01:28:48;4.43;;;4.03;;
5137;SDS011;53959;53.626;11.410;2023-06-22T01:31:33;7.30;;;4.30;;
5137;SDS011;53959;53.626;11.410;2023-06-22T01:34:01;5.60;;;5.10;;
5137;SDS011;53959;53.626;11.410;2023-06-22T01:36:29;4.00;;;3.70;;
5137;SDS011;53959;53.626;11.410;2023-06-22T01:38:57;5.23;;;4.73;;
5137;SDS011;53959;53.626;11.410;2023-06-22T01:41:24;6.30;;;5.30;;
5137;SDS011;53959;53.626;11.410;2023-06-22T01:43:51;4.67;;;4.23;;
5137;SDS011;53959;53.626;11.410;2023-06-22T01:46:19;5.20;;;4.70;;
5137;SDS011;53959;53.626;11.410;2023-06-22T01:48:45;7.20;;;4.60;;
5137;SDS011;53959;53.626;11.410;2023-06-22T01:51:11;4.57;;;4.07;;
5137;SDS011;53959;53.626;11.410;2023-06-22T01:53:38;7.60;;;4.77;;
5137;SDS011;53959;53.626;11.410;2023-06-22T01:56:03;4.53;;;3.50;;
5137;SDS011;53959;53.626;11.410;2023-06-22T01:58:30;13.40;;;4.70;;
5137;SDS011;53959;53.626;11.410;2023-06-22T02:00:58;8.13;;;5.20;;
5137;SDS011;53959;53.626;11.410;2023-06-22T02:03:31;7.57;;;4.73;;
5137;SDS011;53959;53.626;11.410;2023-06-22T02:06:10;19.07;;;5.23;;
5137;SDS011;53959;53.626;11.410;2023-06-22T02:08:46;12.50;;;5.63;;
5137;SDS011;53959;53.626;11.410;2023-06-22T02:11:15;5.40;;;4.90;;
5137;SDS011;53959;53.626;11.410;2023-06-22T02:13:44;12.23;;;4.30;;
5137;SDS011;53959;53.626;11.410;2023-06-22T02:16:11;6.70;;;4.50;;
5137;SDS011;53959;53.626;11.410;2023-06-22T02:18:39;5.63;;;5.00;;
5137;SDS011;53959;53.626;11.410;2023-06-22T02:21:11;4.43;;;3.97;;
5137;SDS011;53959;53.626;11.410;2023-06-22T02:23:36;6.17;;;4.40;;
5137;SDS011;53959;53.626;11.410;2023-06-22T02:26:02;4.80;;;4.40;;
5137;SDS011;53959;53.626;11.410;2023-06-22T02:28:28;5.10;;;4.43;;
5137;SDS011;53959;53.626;11.410;2023-06-22T02:30:54;10.13;;;5.13;;
5137;SDS011;53959;53.626;11.410;2023-06-22T02:33:19;5.60;;;4.73;;
5137;SDS011;53959;53.626;11.410;2023-06-22T02:35:45;8.33;;;4.73;;
5137;SDS011;53959;53.626;11.410;2023-06-22T02:38:14;11.50;;;5.63;;
5137;SDS011;53959;53.626;11.410;2023-06-22T02:40:39;15.60;;;4.63;;
5137;SDS011;53959;53.626;11.410;2023-06-22T02:43:05;7.97;;;5.30;;
5137;SDS011;53959;53.626;11.410;2023-06-22T02:45:30;5.40;;;4.63;;
5137;SDS011;53959;53.626;11.410;2023-06-22T02:47:56;7.73;;;4.47;;
5137;SDS011;53959;53.626;11.410;2023-06-22T02:50:22;5.00;;;4.13;;
5137;SDS011;53959;53.626;11.410;2023-06-22T02:52:48;6.40;;;5.20;;
5137;SDS011;53959;53.626;11.410;2023-06-22T02:55:13;6.77;;;4.27;;
5137;SDS011;53959;53.626;11.410;2023-06-22T02:57:40;7.93;;;4.10;;
5137;SDS011;53959;53.626;11.410;2023-06-22T03:00:09;5.80;;;5.10;;
5137;SDS011;53959;53.626;11.410;2023-06-22T03:02:46;6.43;;;4.90;;
5137;SDS011;53959;53.626;11.410;2023-06-22T03:05:13;4.33;;;3.67;;
5137;SDS011;53959;53.626;11.410;2023-06-22T03:07:40;7.03;;;4.87;;
5137;SDS011;53959;53.626;11.410;2023-06-22T03:10:07;5.97;;;4.13;;
5137;SDS011;53959;53.626;11.410;2023-06-22T03:12:34;6.70;;;3.77;;
5137;SDS011;53959;53.626;11.410;2023-06-22T03:14:59;6.70;;;5.00;;
5137;SDS011;53959;53.626;11.410;2023-06-22T03:17:25;4.70;;;4.30;;
5137;SDS011;53959;53.626;11.410;2023-06-22T03:19:50;8.80;;;5.30;;
5137;SDS011;53959;53.626;11.410;2023-06-22T03:22:15;5.13;;;4.63;;
5137;SDS011;53959;53.626;11.410;2023-06-22T03:24:41;10.00;;;5.03;;
5137;SDS011;53959;53.626;11.410;2023-06-22T03:27:06;7.10;;;5.17;;
5137;SDS011;53959;53.626;11.410;2023-06-22T03:29:33;9.20;;;4.70;;
5137;SDS011;53959;53.626;11.410;2023-06-22T03:31:59;6.47;;;4.97;;
5137;SDS011;53959;53.626;11.410;2023-06-22T03:34:25;5.37;;;4.40;;
5137;SDS011;53959;53.626;11.410;2023-06-22T03:36:51;6.33;;;4.90;;
5137;SDS011;53959;53.626;11.410;2023-06-22T03:39:17;13.90;;;4.60;;
5137;SDS011;53959;53.626;11.410;2023-06-22T03:41:42;14.70;;;6.37;;
5137;SDS011;53959;53.626;11.410;2023-06-22T03:44:08;5.63;;;4.90;;
5137;SDS011;53959;53.626;11.410;2023-06-22T03:46:37;9.63;;;6.00;;
5137;SDS011;53959;53.626;11.410;2023-06-22T03:49:02;9.27;;;5.20;;
5137;SDS011;53959;53.626;11.410;2023-06-22T03:51:28;6.00;;;5.37;;
5137;SDS011;53959;53.626;11.410;2023-06-22T03:53:54;11.47;;;4.73;;
5137;SDS011;53959;53.626;11.410;2023-06-22T03:56:19;5.73;;;5.17;;
5137;SDS011;53959;53.626;11.410;2023-06-22T03:58:46;7.00;;;4.70;;
5137;SDS011;53959;53.626;11.410;2023-06-22T04:01:11;6.83;;;5.33;;
5137;SDS011;53959;53.626;11.410;2023-06-22T04:03:37;9.33;;;4.60;;
5137;SDS011;53959;53.626;11.410;2023-06-22T04:06:03;6.17;;;4.50;;
5137;SDS011;53959;53.626;11.410;2023-06-22T04:08:28;5.70;;;4.60;;
5137;SDS011;53959;53.626;11.410;2023-06-22T04:10:54;5.07;;;4.47;;
5137;SDS011;53959;53.626;11.410;2023-06-22T04:13:20;7.27;;;4.37;;
5137;SDS011;53959;53.626;11.410;2023-06-22T04:15:45;8.43;;;5.73;;
5137;SDS011;53959;53.626;11.410;2023-06-22T04:18:10;8.40;;;5.83;;
5137;SDS011;53959;53.626;11.410;2023-06-22T04:20:36;10.43;;;4.60;;
5137;SDS011;53959;53.626;11.410;2023-06-22T04:23:01;6.93;;;4.83;;
5137;SDS011;53959;53.626;11.410;2023-06-22T04:25:26;15.03;;;5.37;;
5137;SDS011;53959;53.626;11.410;2023-06-22T04:27:52;6.40;;;5.00;;
5137;SDS011;53959;53.626;11.410;2023-06-22T04:30:17;10.93;;;4.77;;
5137;SDS011;53959;53.626;11.410;2023-06-22T04:32:43;8.70;;;5.10;;
5137;SDS011;53959;53.626;11.410;2023-06-22T04:35:09;7.13;;;5.77;;
5137;SDS011;53959;53.626;11.410;2023-06-22T04:37:35;6.17;;;4.90;;
5137;SDS011;53959;53.626;11.410;2023-06-22T04:40:00;12.67;;;5.37;;
5137;SDS011;53959;53.626;11.410;2023-06-22T04:42:26;8.77;;;4.70;;
5137;SDS011;53959;53.626;11.410;2023-06-22T04:44:51;7.97;;;6.17;;
5137;SDS011;53959;53.626;11.410;2023-06-22T04:47:17;8.87;;;4.73;;
5137;SDS011;53959;53.626;11.410;2023-06-22T04:49:42;6.90;;;6.20;;
5137;SDS011;53959;53.626;11.410;2023-06-22T04:52:09;8.07;;;6.83;;
5137;SDS011;53959;53.626;11.410;2023-06-22T04:54:37;8.00;;;5.40;;
5137;SDS011;53959;53.626;11.410;2023-06-22T04:57:04;7.87;;;5.93;;
5137;SDS011;53959;53.626;11.410;2023-06-22T04:59:35;7.30;;;5.60;;
5137;SDS011;53959;53.626;11.410;2023-06-22T05:02:03;6.93;;;4.87;;
5137;SDS011;53959;53.626;11.410;2023-06-22T05:04:31;6.03;;;5.43;;
5137;SDS011;53959;53.626;11.410;2023-06-22T05:06:56;6.73;;;5.40;;
5137;SDS011;53959;53.626;11.410;2023-06-22T05:09:23;8.93;;;6.10;;
5137;SDS011;53959;53.626;11.410;2023-06-22T05:11:50;6.97;;;5.80;;
5137;SDS011;53959;53.626;11.410;2023-06-22T05:14:15;10.40;;;5.50;;
5137;SDS011;53959;53.626;11.410;2023-06-22T05:16:41;7.47;;;5.73;;
5137;SDS011;53959;53.626;11.410;2023-06-22T05:19:07;8.87;;;5.87;;
5137;SDS011;53959;53.626;11.410;2023-06-22T05:21:33;7.10;;;6.30;;
5137;SDS011;53959;53.626;11.410;2023-06-22T05:23:58;8.73;;;5.30;;
5137;SDS011;53959;53.626;11.410;2023-06-22T05:26:28;7.03;;;5.30;;
5137;SDS011;53959;53.626;11.410;2023-06-22T05:28:55;6.63;;;5.50;;
5137;SDS011;53959;53.626;11.410;2023-06-22T05:31:20;9.27;;;5.47;;
5137;SDS011;53959;53.626;11.410;2023-06-22T05:33:46;6.63;;;4.80;;
5137;SDS011;53959;53.626;11.410;2023-06-22T05:36:13;11.50;;;4.50;;
5137;SDS011;53959;53.626;11.410;2023-06-22T05:38:39;7.23;;;5.10;;
5137;SDS011;53959;53.626;11.410;2023-06-22T05:41:05;5.87;;;4.50;;
5137;SDS011;53959;53.626;11.410;2023-06-22T05:43:31;6.03;;;3.70;;
5137;SDS011;53959;53.626;11.410;2023-06-22T05:45:56;4.67;;;3.37;;
5137;SDS011;53959;53.626;11.410;2023-06-22T05:48:23;5.20;;;3.27;;
5137;SDS011;53959;53.626;11.410;2023-06-22T05:50:49;8.87;;;4.03;;
5137;SDS011;53959;53.626;11.410;2023-06-22T05:53:14;5.40;;;3.20;;
5137;SDS011;53959;53.626;11.410;2023-06-22T05:55:40;5.23;;;3.47;;
5137;SDS011;53959;53.626;11.410;2023-06-22T05:58:05;4.53;;;3.07;;
5137;SDS011;53959;53.626;11.410;2023-06-22T06:00:31;3.43;;;3.17;;
5137;SDS011;53959;53.626;11.410;2023-06-22T06:02:57;3.93;;;2.93;;
5137;SDS011;53959;53.626;11.410;2023-06-22T06:05:28;4.90;;;3.00;;
5137;SDS011;53959;53.626;11.410;2023-06-22T06:07:53;14.77;;;3.30;;
5137;SDS011;53959;53.626;11.410;2023-06-22T06:10:19;3.80;;;3.13;;
5137;SDS011;53959;53.626;11.410;2023-06-22T06:12:44;5.43;;;2.63;;
5137;SDS011;53959;53.626;11.410;2023-06-22T06:15:09;4.23;;;3.20;;
5137;SDS011;53959;53.626;11.410;2023-06-22T06:17:35;4.37;;;3.07;;
5137;SDS011;53959;53.626;11.410;2023-06-22T06:20:00;3.20;;;2.93;;
5137;SDS011;53959;53.626;11.410;2023-06-22T06:22:26;3.00;;;2.70;;
5137;SDS011;53959;53.626;11.410;2023-06-22T06:24:51;8.57;;;3.87;;
5137;SDS011;53959;53.626;11.410;2023-06-22T06:27:16;4.77;;;2.93;;
5137;SDS011;53959;53.626;11.410;2023-06-22T06:29:43;4.03;;;2.10;;
5137;SDS011;53959;53.626;11.410;2023-06-22T06:32:10;2.30;;;2.20;;
5137;SDS011;53959;53.626;11.410;2023-06-22T06:34:36;6.07;;;2.73;;
5137;SDS011;53959;53.626;11.410;2023-06-22T06:37:01;5.57;;;2.73;;
5137;SDS011;53959;53.626;11.410;2023-06-22T06:39:27;10.23;;;2.60;;
5137;SDS011;53959;53.626;11.410;2023-06-22T06:41:52;4.83;;;2.60;;
5137;SDS011;53959;53.626;11.410;2023-06-22T06:44:18;2.77;;;2.53;;
5137;SDS011;53959;53.626;11.410;2023-06-22T06:46:44;2.83;;;2.63;;
5137;SDS011;53959;53.626;11.410;2023-06-22T06:49:09;4.97;;;2.37;;
5137;SDS011;53959;53.626;11.410;2023-06-22T06:51:34;4.40;;;2.60;;
5137;SDS011;53959;53.626;11.410;2023-06-22T06:54:00;9.17;;;3.17;;
5137;SDS011;53959;53.626;11.410;2023-06-22T06:56:25;3.73;;;2.87;;
5137;SDS011;53959;53.626;11.410;2023-06-22T06:58:51;2.57;;;2.37;;
5137;SDS011;53959;53.626;11.410;2023-06-22T07:01:16;4.67;;;2.40;;
5137;SDS011;53959;53.626;11.410;2023-06-22T07:03:42;4.17;;;2.90;;
5137;SDS011;53959;53.626;11.410;2023-06-22T07:06:08;2.90;;;2.70;;
5137;SDS011;53959;53.626;11.410;2023-06-22T07:08:33;6.73;;;2.93;;
5137;SDS011;53959;53.626;11.410;2023-06-22T07:11:00;4.43;;;2.97;;
5137;SDS011;53959;53.626;11.410;2023-06-22T07:13:26;3.43;;;2.90;;
5137;SDS011;53959;53.626;11.410;2023-06-22T07:15:51;4.97;;;3.20;;
5137;SDS011;53959;53.626;11.410;2023-06-22T07:18:16;2.80;;;2.50;;
5137;SDS011;53959;53.626;11.410;2023-06-22T07:20:42;3.77;;;3.10;;
5137;SDS011;53959;53.626;11.410;2023-06-22T07:23:07;4.80;;;2.80;;
5137;SDS011;53959;53.626;11.410;2023-06-22T07:25:32;4.00;;;3.07;;
5137;SDS011;53959;53.626;11.410;2023-06-22T07:28:07;5.23;;;3.10;;
5137;SDS011;53959;53.626;11.410;2023-06-22T07:30:32;5.40;;;2.90;;
5137;SDS011;53959;53.626;11.410;2023-06-22T07:32:59;3.27;;;3.00;;
5137;SDS011;53959;53.626;11.410;2023-06-22T07:35:28;6.10;;;2.60;;
5137;SDS011;53959;53.626;11.410;2023-06-22T07:37:54;5.93;;;3.97;;
5137;SDS011;53959;53.626;11.410;2023-06-22T07:40:19;2.90;;;2.60;;
5137;SDS011;53959;53.626;11.410;2023-06-22T07:42:45;8.33;;;3.40;;
5137;SDS011;53959;53.626;11.410;2023-06-22T07:45:13;6.00;;;3.50;;
5137;SDS011;53959;53.626;11.410;2023-06-22T07:47:39;7.07;;;3.23;;
5137;SDS011;53959;53.626;11.410;2023-06-22T07:50:04;5.93;;;3.30;;
5137;SDS011;53959;53.626;11.410;2023-06-22T07:52:30;9.10;;;3.17;;
5137;SDS011;53959;53.626;11.410;2023-06-22T07:54:56;3.83;;;2.73;;
5137;SDS011;53959;53.626;11.410;2023-06-22T07:57:21;3.77;;;3.47;;
5137;SDS011;53959;53.626;11.410;2023-06-22T07:59:47;5.07;;;3.40;;
5137;SDS011;53959;53.626;11.410;2023-06-22T08:02:12;3.43;;;2.67;;
5137;SDS011;53959;53.626;11.410;2023-06-22T08:04:38;3.00;;;2.80;;
5137;SDS011;53959;53.626;11.410;2023-06-22T08:07:04;12.13;;;3.27;;
5137;SDS011;53959;53.626;11.410;2023-06-22T08:09:30;5.03;;;2.80;;
5137;SDS011;53959;53.626;11.410;2023-06-22T08:11:57;3.43;;;2.80;;
5137;SDS011;53959;53.626;11.410;2023-06-22T08:14:23;3.13;;;2.60;;
5137;SDS011;53959;53.626;11.410;2023-06-22T08:16:50;3.40;;;3.10;;
5137;SDS011;53959;53.626;11.410;2023-06-22T08:19:15;4.10;;;2.87;;
5137;SDS011;53959;53.626;11.410;2023-06-22T08:21:41;5.03;;;3.53;;
5137;SDS011;53959;53.626;11.410;2023-06-22T08:24:06;8.90;;;3.23;;
5137;SDS011;53959;53.626;11.410;2023-06-22T08:26:32;6.00;;;3.57;;
5137;SDS011;53959;53.626;11.410;2023-06-22T08:29:01;3.63;;;2.90;;
5137;SDS011;53959;53.626;11.410;2023-06-22T08:31:27;3.37;;;2.93;;
5137;SDS011;53959;53.626;11.410;2023-06-22T08:33:52;3.43;;;2.80;;
5137;SDS011;53959;53.626;11.410;2023-06-22T08:36:18;2.93;;;2.73;;
5137;SDS011;53959;53.626;11.410;2023-06-22T08:38:43;6.77;;;2.93;;
5137;SDS011;53959;53.626;11.410;2023-06-22T08:41:09;3.13;;;2.57;;
5137;SDS011;53959;53.626;11.410;2023-06-22T08:43:34;2.80;;;2.40;;
5137;SDS011;53959;53.626;11.410;2023-06-22T08:46:00;3.87;;;2.70;;
5137;SDS011;53959;53.626;11.410;2023-06-22T08:48:27;5.70;;;2.50;;
5137;SDS011;53959;53.626;11.410;2023-06-22T08:50:53;3.60;;;2.37;;
5137;SDS011;53959;53.626;11.410;2023-06-22T08:53:18;2.90;;;2.50;;
5137;SDS011;53959;53.626;11.410;2023-06-22T08:55:43;3.63;;;2.63;;
5137;SDS011;53959;53.626;11.410;2023-06-22T08:58:10;4.40;;;2.60;;
5137;SDS011;53959;53.626;11.410;2023-06-22T09:00:35;6.13;;;2.80;;
5137;SDS011;53959;53.626;11.410;2023-06-22T09:03:01;2.70;;;2.50;;
5137;SDS011;53959;53.626;11.410;2023-06-22T09:05:28;4.90;;;2.60;;
5137;SDS011;53959;53.626;11.410;2023-06-22T09:07:55;5.07;;;2.20;;
5137;SDS011;53959;53.626;11.410;2023-06-22T09:10:21;3.40;;;2.80;;
5137;SDS011;53959;53.626;11.410;2023-06-22T09:12:47;9.93;;;2.60;;
5137;SDS011;53959;53.626;11.410;2023-06-22T09:15:12;2.13;;;2.00;;
5137;SDS011;53959;53.626;11.410;2023-06-22T09:17:37;1.90;;;1.80;;
5137;SDS011;53959;53.626;11.410;2023-06-22T09:20:03;2.33;;;2.03;;
5137;SDS011;53959;53.626;11.410;2023-06-22T09:22:31;1.97;;;1.87;;
5137;SDS011;53959;53.626;11.410;2023-06-22T09:24:57;1.40;;;1.40;;
5137;SDS011;53959;53.626;11.410;2023-06-22T09:27:22;1.37;;;1.37;;
5137;SDS011;53959;53.626;11.410;2023-06-22T09:29:48;1.10;;;1.10;;
5137;SDS011;53959;53.626;11.410;2023-06-22T09:32:13;1.73;;;1.63;;
5137;SDS011;53959;53.626;11.410;2023-06-22T09:34:39;1.10;;;1.10;;
5137;SDS011;53959;53.626;11.410;2023-06-22T09:37:04;1.60;;;1.60;;
5137;SDS011;53959;53.626;11.410;2023-06-22T09:39:30;2.03;;;1.60;;
5137;SDS011;53959;53.626;11.410;2023-06-22T09:41:57;3.43;;;2.53;;
5137;SDS011;53959;53.626;11.410;2023-06-22T09:44:23;2.90;;;2.00;;
5137;SDS011;53959;53.626;11.410;2023-06-22T09:46:48;2.60;;;2.50;;
5137;SDS011;53959;53.626;11.410;2023-06-22T09:49:14;2.90;;;2.70;;
5137;SDS011;53959;53.626;11.410;2023-06-22T09:51:39;8.00;;;3.47;;
5137;SDS011;53959;53.626;11.410;2023-06-22T09:54:04;2.47;;;2.37;;
5137;SDS011;53959;53.626;11.410;2023-06-22T09:56:30;2.73;;;2.53;;
5137;SDS011;53959;53.626;11.410;2023-06-22T09:58:56;2.40;;;2.20;;
5137;SDS011;53959;53.626;11.410;2023-06-22T10:01:21;5.50;;;2.97;;
5137;SDS011;53959;53.626;11.410;2023-06-22T10:03:47;3.20;;;2.63;;
5137;SDS011;53959;53.626;11.410;2023-06-22T10:06:13;3.60;;;3.30;;
5137;SDS011;53959;53.626;11.410;2023-06-22T10:08:38;4.57;;;2.73;;
5137;SDS011;53959;53.626;11.410;2023-06-22T10:11:04;3.13;;;2.80;;
5137;SDS011;53959;53.626;11.410;2023-06-22T10:13:29;2.10;;;2.00;;
5137;SDS011;53959;53.626;11.410;2023-06-22T10:15:55;2.83;;;2.33;;
5137;SDS011;53959;53.626;11.410;2023-06-22T10:18:21;2.43;;;2.23;;
5137;SDS011;53959;53.626;11.410;2023-06-22T10:20:47;5.03;;;2.47;;
5137;SDS011;53959;53.626;11.410;2023-06-22T10:23:16;2.60;;;2.40;;
5137;SDS011;53959;53.626;11.410;2023-06-22T10:25:41;2.70;;;2.50;;
5137;SDS011;53959;53.626;11.410;2023-06-22T10:28:06;3.33;;;3.13;;
5137;SDS011;53959;53.626;11.410;2023-06-22T10:30:32;2.50;;;2.40;;
5137;SDS011;53959;53.626;11.410;2023-06-22T10:32:57;2.50;;;2.30;;
5137;SDS011;53959;53.626;11.410;2023-06-22T10:35:23;2.63;;;2.03;;
5137;SDS011;53959;53.626;11.410;2023-06-22T10:37:48;2.53;;;2.28;;
5137;SDS011;53959;53.626;11.410;2023-06-22T10:40:14;6.00;;;2.93;;
5137;SDS011;53959;53.626;11.410;2023-06-22T10:42:42;2.70;;;2.20;;
5137;SDS011;53959;53.626;11.410;2023-06-22T10:45:08;3.53;;;2.22;;
5137;SDS011;53959;53.626;11.410;2023-06-22T10:47:34;2.45;;;2.35;;
5137;SDS011;53959;53.626;11.410;2023-06-22T10:50:00;9.45;;;2.78;;
5137;SDS011;53959;53.626;11.410;2023-06-22T10:52:26;1.70;;;1.60;;
5137;SDS011;53959;53.626;11.410;2023-06-22T10:54:51;1.95;;;1.85;;
5137;SDS011;53959;53.626;11.410;2023-06-22T10:57:17;1.73;;;1.60;;
5137;SDS011;53959;53.626;11.410;2023-06-22T10:59:43;2.65;;;2.10;;
5137;SDS011;53959;53.626;11.410;2023-06-22T11:02:08;4.75;;;2.00;;
5137;SDS011;53959;53.626;11.410;2023-06-22T11:04:33;2.60;;;2.40;;
5137;SDS011;53959;53.626;11.410;2023-06-22T11:06:59;2.38;;;1.92;;
5137;SDS011;53959;53.626;11.410;2023-06-22T11:09:24;2.13;;;2.03;;
5137;SDS011;53959;53.626;11.410;2023-06-22T11:11:50;2.25;;;1.90;;
5137;SDS011;53959;53.626;11.410;2023-06-22T11:14:18;2.60;;;1.67;;
5137;SDS011;53959;53.626;11.410;2023-06-22T11:16:44;4.45;;;2.40;;
5137;SDS011;53959;53.626;11.410;2023-06-22T11:19:11;4.68;;;2.25;;
5137;SDS011;53959;53.626;11.410;2023-06-22T11:21:37;2.35;;;2.13;;
5137;SDS011;53959;53.626;11.410;2023-06-22T11:24:02;3.58;;;2.58;;
5137;SDS011;53959;53.626;11.410;2023-06-22T11:26:28;3.75;;;2.83;;
5137;SDS011;53959;53.626;11.410;2023-06-22T11:28:53;4.57;;;2.63;;
5137;SDS011;53959;53.626;11.410;2023-06-22T11:31:19;2.78;;;2.60;;
5137;SDS011;53959;53.626;11.410;2023-06-22T11:33:44;3.25;;;3.05;;
5137;SDS011;53959;53.626;11.410;2023-06-22T11:36:11;3.05;;;2.85;;
5137;SDS011;53959;53.626;11.410;2023-06-22T11:38:36;3.78;;;3.47;;
5137;SDS011;53959;53.626;11.410;2023-06-22T11:41:04;7.72;;;2.38;;
5137;SDS011;53959;53.626;11.410;2023-06-22T11:43:30;3.78;;;3.25;;
5137;SDS011;53959;53.626;11.410;2023-06-22T11:45:56;3.17;;;2.88;;
5137;SDS011;53959;53.626;11.410;2023-06-22T11:48:23;2.95;;;2.53;;
5137;SDS011;53959;53.626;11.410;2023-06-22T11:50:49;5.60;;;3.17;;
5137;SDS011;53959;53.626;11.410;2023-06-22T11:53:14;3.33;;;2.80;;
5137;SDS011;53959;53.626;11.410;2023-06-22T11:55:41;6.60;;;3.90;;
5137;SDS011;53959;53.626;11.410;2023-06-22T11:58:07;3.20;;;3.00;;
5137;SDS011;53959;53.626;11.410;2023-06-22T12:00:33;8.75;;;3.58;;
5137;SDS011;53959;53.626;11.410;2023-06-22T12:02:58;5.25;;;2.85;;
5137;SDS011;53959;53.626;11.410;2023-06-22T12:05:24;13.25;;;3.67;;
5137;SDS011;53959;53.626;11.410;2023-06-22T12:07:50;7.75;;;3.97;;
5137;SDS011;53959;53.626;11.410;2023-06-22T12:10:17;5.20;;;3.27;;
5137;SDS011;53959;53.626;11.410;2023-06-22T12:12:43;3.20;;;3.00;;
5137;SDS011;53959;53.626;11.410;2023-06-22T12:15:09;4.10;;;3.13;;
5137;SDS011;53959;53.626;11.410;2023-06-22T12:17:35;5.90;;;3.45;;
5137;SDS011;53959;53.626;11.410;2023-06-22T12:20:00;9.57;;;4.30;;
5137;SDS011;53959;53.626;11.410;2023-06-22T12:22:27;3.95;;;3.60;;
5137;SDS011;53959;53.626;11.410;2023-06-22T12:24:53;5.00;;;4.60;;
5137;SDS011;53959;53.626;11.410;2023-06-22T12:27:18;4.87;;;3.50;;
5137;SDS011;53959;53.626;11.410;2023-06-22T12:29:46;13.63;;;6.20;;
5137;SDS011;53959;53.626;11.410;2023-06-22T12:32:12;10.87;;;3.50;;
5137;SDS011;53959;53.626;11.410;2023-06-22T12:34:38;5.03;;;3.23;;
5137;SDS011;53959;53.626;11.410;2023-06-22T12:37:04;3.37;;;3.17;;
5137;SDS011;53959;53.626;11.410;2023-06-22T12:39:31;3.50;;;3.07;;
5137;SDS011;53959;53.626;11.410;2023-06-22T12:41:57;5.30;;;4.07;;
5137;SDS011;53959;53.626;11.410;2023-06-22T12:44:22;6.90;;;3.50;;
5137;SDS011;53959;53.626;11.410;2023-06-22T12:46:48;7.13;;;3.20;;
5137;SDS011;53959;53.626;11.410;2023-06-22T12:49:13;3.40;;;3.10;;
5137;SDS011;53959;53.626;11.410;2023-06-22T12:51:39;3.87;;;3.50;;
5137;SDS011;53959;53.626;11.410;2023-06-22T12:54:09;3.93;;;3.63;;
5137;SDS011;53959;53.626;11.410;2023-06-22T12:56:35;4.83;;;4.00;;
5137;SDS011;53959;53.626;11.410;2023-06-22T12:59:01;5.27;;;3.47;;
5137;SDS011;53959;53.626;11.410;2023-06-22T13:01:27;4.07;;;3.77;;
5137;SDS011;53959;53.626;11.410;2023-06-22T13:03:53;3.67;;;3.37;;
5137;SDS011;53959;53.626;11.410;2023-06-22T13:06:18;5.33;;;3.70;;
5137;SDS011;53959;53.626;11.410;2023-06-22T13:08:44;3.43;;;3.10;;
5137;SDS011;53959;53.626;11.410;2023-06-22T13:11:09;5.93;;;4.80;;
5137;SDS011;53959;53.626;11.410;2023-06-22T13:13:34;5.53;;;4.43;;
5137;SDS011;53959;53.626;11.410;2023-06-22T13:16:00;10.13;;;4.50;;
5137;SDS011;53959;53.626;11.410;2023-06-22T13:18:25;4.20;;;3.00;;
5137;SDS011;53959;53.626;11.410;2023-06-22T13:20:50;5.80;;;3.83;;
5137;SDS011;53959;53.626;11.410;2023-06-22T13:23:16;4.43;;;3.90;;
5137;SDS011;53959;53.626;11.410;2023-06-22T13:25:41;7.23;;;4.20;;
5137;SDS011;53959;53.626;11.410;2023-06-22T13:28:07;3.70;;;3.40;;
5137;SDS011;53959;53.626;11.410;2023-06-22T13:30:33;4.13;;;3.83;;
5137;SDS011;53959;53.626;11.410;2023-06-22T13:32:58;4.63;;;4.03;;
5137;SDS011;53959;53.626;11.410;2023-06-22T13:35:24;5.60;;;5.10;;
5137;SDS011;53959;53.626;11.410;2023-06-22T13:37:49;6.17;;;4.50;;
5137;SDS011;53959;53.626;11.410;2023-06-22T13:40:14;5.40;;;4.37;;
5137;SDS011;53959;53.626;11.410;2023-06-22T13:42:40;4.63;;;4.23;;
5137;SDS011;53959;53.626;11.410;2023-06-22T13:45:06;4.20;;;3.87;;
5137;SDS011;53959;53.626;11.410;2023-06-22T13:47:32;4.40;;;3.63;;
5137;SDS011;53959;53.626;11.410;2023-06-22T13:49:58;4.93;;;4.43;;
5137;SDS011;53959;53.626;11.410;2023-06-22T13:52:23;5.60;;;4.27;;
5137;SDS011;53959;53.626;11.410;2023-06-22T13:54:49;4.47;;;4.13;;
5137;SDS011;53959;53.626;11.410;2023-06-22T13:57:14;7.03;;;4.70;;
5137;SDS011;53959;53.626;11.410;2023-06-22T13:59:40;4.67;;;4.13;;
5137;SDS011;53959;53.626;11.410;2023-06-22T14:02:05;8.60;;;4.93;;
5137;SDS011;53959;53.626;11.410;2023-06-22T14:04:31;7.03;;;4.57;;
5137;SDS011;53959;53.626;11.410;2023-06-22T14:06:56;6.97;;;4.50;;
5137;SDS011;53959;53.626;11.410;2023-06-22T14:09:22;5.43;;;4.93;;
5137;SDS011;53959;53.626;11.410;2023-06-22T14:11:47;4.47;;;4.00;;
5137;SDS011;53959;53.626;11.410;2023-06-22T14:14:12;9.20;;;5.33;;
5137;SDS011;53959;53.626;11.410;2023-06-22T14:16:38;8.07;;;4.20;;
5137;SDS011;53959;53.626;11.410;2023-06-22T14:19:03;4.23;;;3.83;;
5137;SDS011;53959;53.626;11.410;2023-06-22T14:21:28;5.10;;;4.60;;
5137;SDS011;53959;53.626;11.410;2023-06-22T14:23:54;10.53;;;4.13;;
5137;SDS011;53959;53.626;11.410;2023-06-22T14:26:20;4.93;;;4.40;;
5137;SDS011;53959;53.626;11.410;2023-06-22T14:28:46;6.63;;;4.70;;
5137;SDS011;53959;53.626;11.410;2023-06-22T14:31:17;5.17;;;4.67;;
5137;SDS011;53959;53.626;11.410;2023-06-22T14:33:45;4.43;;;4.07;;
5137;SDS011;53959;53.626;11.410;2023-06-22T14:36:12;5.37;;;3.60;;
5137;SDS011;53959;53.626;11.410;2023-06-22T14:38:37;6.13;;;3.90;;
5137;SDS011;53959;53.626;11.410;2023-06-22T14:41:03;5.07;;;4.67;;
5137;SDS011;53959;53.626;11.410;2023-06-22T14:43:28;3.80;;;3.60;;
5137;SDS011;53959;53.626;11.410;2023-06-22T14:45:53;5.83;;;4.50;;
5137;SDS011;53959;53.626;11.410;2023-06-22T14:48:18;5.90;;;4.33;;
5137;SDS011;53959;53.626;11.410;2023-06-22T14:50:44;5.17;;;4.20;;
5137;SDS011;53959;53.626;11.410;2023-06-22T14:53:09;4.17;;;3.87;;